Time;durP1;ratioP1;P1;durP2;ratioP2;P2;SDS_P1;SDS_P2;PMS_P1;PMS_P2;Temp;Humidity;BMP_temperature;BMP_pressure;BME280_temperature;BME280_humidity;BME280_pressure;Samples;Min_cycle;Max_cycle;Signal;HPM_P1;HPM_P2
2023/06/28 00:00:12;;;;;;;5.70;2.90;;;18.10;1.00;;;;;;4995929;28;20216;-68
2023/06/28 00:02:38;;;;;;;2.87;2.60;;;18.10;1.00;;;;;;4995692;28;20184;-68
2023/06/28 00:05:04;;;;;;;4.57;2.60;;;18.10;1.00;;;;;;4995831;28;20442;-68
2023/06/28 00:07:31;;;;;;;6.70;3.33;;;18.10;1.00;;;;;;4995818;28;20183;-67
2023/06/28 00:09:57;;;;;;;3.90;3.57;;;18.10;1.00;;;;;;4995791;28;20489;-68
2023/06/28 00:12:23;;;;;;;4.33;3.20;;;18.10;1.00;;;;;;4995608;28;20415;-68
2023/06/28 00:14:49;;;;;;;3.53;3.23;;;18.10;1.00;;;;;;4995541;28;21021;-68
2023/06/28 00:17:15;;;;;;;3.63;2.97;;;18.10;1.00;;;;;;4994425;28;20224;-68
2023/06/28 00:19:47;;;;;;;3.47;3.20;;;18.10;1.00;;;;;;4995493;28;20565;-68
2023/06/28 00:22:17;;;;;;;3.47;3.17;;;18.10;1.00;;;;;;4995249;28;20511;-68
2023/06/28 00:24:42;;;;;;;3.30;3.00;;;18.20;1.00;;;;;;4995344;28;20426;-67
2023/06/28 00:27:11;;;;;;;3.83;3.43;;;18.20;1.00;;;;;;4995441;28;20890;-68
2023/06/28 00:29:37;;;;;;;9.40;3.73;;;18.20;1.00;;;;;;4995198;28;20216;-68
2023/06/28 00:32:03;;;;;;;5.10;3.87;;;18.20;1.00;;;;;;4995109;28;20419;-68
2023/06/28 00:34:28;;;;;;;6.07;3.30;;;18.20;1.00;;;;;;4993894;28;20458;-68
2023/06/28 00:36:54;;;;;;;5.83;3.33;;;18.20;1.00;;;;;;4995129;28;20455;-68
2023/06/28 00:39:19;;;;;;;5.80;3.10;;;18.20;1.00;;;;;;4994409;28;20204;-68
2023/06/28 00:41:45;;;;;;;4.70;3.90;;;18.20;1.00;;;;;;4994824;28;20188;-68
2023/06/28 00:44:10;;;;;;;4.87;3.43;;;18.20;1.00;;;;;;4995069;28;20180;-68
2023/06/28 00:46:36;;;;;;;3.90;3.17;;;18.20;1.00;;;;;;4995316;28;20195;-68
2023/06/28 00:49:02;;;;;;;4.70;3.30;;;18.20;1.00;;;;;;4993789;28;20248;-68
2023/06/28 00:51:30;;;;;;;3.70;3.20;;;18.20;1.00;;;;;;4994727;28;20177;-68
2023/06/28 00:53:57;;;;;;;6.30;3.50;;;18.10;1.00;;;;;;4993776;28;20419;-68
2023/06/28 00:56:24;;;;;;;3.60;2.97;;;18.20;1.00;;;;;;4994973;28;20783;-68
2023/06/28 00:58:50;;;;;;;4.23;3.20;;;18.20;1.00;;;;;;4994526;28;20459;-68
2023/06/28 01:01:16;;;;;;;3.40;3.10;;;18.20;1.00;;;;;;4994755;28;20467;-68
2023/06/28 01:03:42;;;;;;;4.20;3.27;;;18.20;1.00;;;;;;4994754;28;20841;-68
2023/06/28 01:06:12;;;;;;;4.57;2.80;;;18.20;1.00;;;;;;4995493;28;20503;-67
2023/06/28 01:08:39;;;;;;;5.77;3.30;;;18.20;1.00;;;;;;4995290;28;20216;-67
2023/06/28 01:11:06;;;;;;;3.97;3.47;;;18.20;1.00;;;;;;4995792;28;20913;-68
2023/06/28 01:13:34;;;;;;;3.40;3.10;;;18.20;1.00;;;;;;4993993;28;20459;-68
2023/06/28 01:16:00;;;;;;;5.53;3.27;;;18.20;1.00;;;;;;4995681;28;20427;-67
2023/06/28 01:18:26;;;;;;;3.87;2.63;;;18.20;1.00;;;;;;4995613;28;20494;-67
2023/06/28 01:20:55;;;;;;;8.17;3.60;;;18.20;1.00;;;;;;4994616;28;20264;-67
2023/06/28 01:23:25;;;;;;;3.40;3.10;;;18.30;1.00;;;;;;4992920;28;20280;-68
2023/06/28 01:25:51;;;;;;;5.23;3.20;;;18.20;1.00;;;;;;4994255;28;20420;-67
2023/06/28 01:28:19;;;;;;;3.67;3.33;;;18.20;1.00;;;;;;4993095;28;20462;-67
2023/06/28 01:30:48;;;;;;;3.40;3.10;;;18.20;1.00;;;;;;4993228;28;20478;-69
2023/06/28 01:33:14;;;;;;;13.93;3.60;;;18.30;1.00;;;;;;4994680;28;20462;-67
2023/06/28 01:35:40;;;;;;;3.57;3.23;;;18.20;1.00;;;;;;4994966;28;20470;-67
2023/06/28 01:38:07;;;;;;;3.23;2.93;;;18.20;1.00;;;;;;4994302;28;20795;-67
2023/06/28 01:40:35;;;;;;;4.90;3.07;;;18.20;1.00;;;;;;4995082;28;20183;-67
2023/06/28 01:43:06;;;;;;;4.47;3.77;;;18.20;1.00;;;;;;4994562;28;20424;-67
2023/06/28 01:45:35;;;;;;;3.67;3.37;;;18.30;1.00;;;;;;4994839;28;20487;-67
2023/06/28 01:48:01;;;;;;;4.83;3.23;;;18.20;1.00;;;;;;4994442;28;20423;-67
2023/06/28 01:50:28;;;;;;;3.60;3.30;;;18.20;1.00;;;;;;4994181;28;20834;-67
2023/06/28 01:52:58;;;;;;;4.17;2.87;;;18.20;1.00;;;;;;4993738;28;20416;-68
2023/06/28 01:55:23;;;;;;;3.80;2.93;;;18.20;1.00;;;;;;4992611;28;20527;-68
2023/06/28 01:57:49;;;;;;;3.90;2.97;;;18.20;1.00;;;;;;4993582;28;20499;-67
2023/06/28 02:00:15;;;;;;;3.93;3.53;;;18.20;1.00;;;;;;5016332;22;20232;-68
2023/06/28 02:02:41;;;;;;;5.00;4.53;;;18.20;1.00;;;;;;4992827;28;20587;-68
2023/06/28 02:05:07;;;;;;;3.70;3.40;;;18.20;1.00;;;;;;4992995;28;20176;-68
2023/06/28 02:07:32;;;;;;;3.40;3.10;;;18.10;1.00;;;;;;4993006;28;20234;-67
2023/06/28 02:09:58;;;;;;;3.40;3.10;;;18.20;1.00;;;;;;4992816;28;20467;-68
2023/06/28 02:12:23;;;;;;;4.13;3.23;;;18.10;1.00;;;;;;4992699;28;20236;-69
2023/06/28 02:14:51;;;;;;;3.17;2.80;;;18.10;1.00;;;;;;4992797;28;20185;-68
2023/06/28 02:17:20;;;;;;;4.47;2.53;;;18.00;1.00;;;;;;4992804;28;20180;-68
2023/06/28 02:19:46;;;;;;;3.90;2.73;;;18.00;1.00;;;;;;4992622;28;20846;-68
2023/06/28 02:22:12;;;;;;;3.00;2.80;;;17.90;1.00;;;;;;4992607;28;20554;-68
2023/06/28 02:24:37;;;;;;;3.20;2.90;;;17.80;1.00;;;;;;4993199;28;20452;-68
2023/06/28 02:27:04;;;;;;;4.43;2.67;;;17.80;1.00;;;;;;4992609;28;20267;-68
2023/06/28 02:29:29;;;;;;;4.53;3.07;;;17.70;1.00;;;;;;4992336;28;20216;-67
2023/06/28 02:31:55;;;;;;;3.33;2.83;;;17.60;1.00;;;;;;4992201;28;20419;-68
2023/06/28 02:34:21;;;;;;;3.23;2.93;;;17.60;1.00;;;;;;4992406;28;20316;-68
2023/06/28 02:36:47;;;;;;;3.27;2.83;;;17.60;1.00;;;;;;4992408;28;20972;-68
2023/06/28 02:39:12;;;;;;;8.30;3.07;;;17.50;1.00;;;;;;4992411;28;20219;-68
2023/06/28 02:41:38;;;;;;;4.83;2.80;;;17.50;1.00;;;;;;4992249;28;20191;-68
2023/06/28 02:44:03;;;;;;;3.40;3.10;;;17.50;1.00;;;;;;4992494;28;20672;-68
2023/06/28 02:46:29;;;;;;;5.30;3.53;;;17.50;1.00;;;;;;4992351;28;20184;-68
2023/06/28 02:48:54;;;;;;;3.67;3.00;;;17.50;1.00;;;;;;4992095;28;20220;-68
2023/06/28 02:51:20;;;;;;;3.60;2.63;;;17.50;1.00;;;;;;4992155;28;20195;-67
2023/06/28 02:53:45;;;;;;;6.53;3.20;;;17.40;1.00;;;;;;4992012;28;20525;-69
2023/06/28 02:56:15;;;;;;;4.90;3.50;;;17.40;1.00;;;;;;4992225;28;20176;-68
2023/06/28 02:58:41;;;;;;;4.30;2.60;;;17.40;1.00;;;;;;4991964;28;20205;-67
2023/06/28 03:01:07;;;;;;;7.50;3.10;;;17.40;1.00;;;;;;4992192;28;20503;-67
2023/06/28 03:03:34;;;;;;;5.97;3.67;;;17.30;1.00;;;;;;4991449;28;20916;-67
2023/06/28 03:06:00;;;;;;;3.13;2.80;;;17.40;1.00;;;;;;4992391;28;20429;-67
2023/06/28 03:08:25;;;;;;;4.63;3.53;;;17.30;1.00;;;;;;4992000;28;20460;-68
2023/06/28 03:10:51;;;;;;;3.17;2.87;;;17.30;1.00;;;;;;4992257;28;20423;-67
2023/06/28 03:13:16;;;;;;;3.47;2.93;;;17.20;1.00;;;;;;4991592;28;20669;-67
2023/06/28 03:15:42;;;;;;;3.80;2.90;;;17.20;1.00;;;;;;4992475;28;20176;-68
2023/06/28 03:18:08;;;;;;;3.80;3.40;;;17.20;1.00;;;;;;4990771;28;20697;-68
2023/06/28 03:20:33;;;;;;;4.70;3.20;;;17.10;2.00;;;;;;4991842;28;20210;-68
2023/06/28 03:22:59;;;;;;;5.40;2.80;;;17.10;2.10;;;;;;4990880;28;20176;-68
2023/06/28 03:25:24;;;;;;;7.03;2.90;;;17.00;2.40;;;;;;4991974;28;20176;-68
2023/06/28 03:27:50;;;;;;;6.30;3.37;;;17.00;2.60;;;;;;4992131;28;20180;-67
2023/06/28 03:30:15;;;;;;;4.30;3.30;;;17.00;2.50;;;;;;4991829;28;20197;-68
2023/06/28 03:32:41;;;;;;;3.93;3.10;;;17.00;2.60;;;;;;4991558;28;20347;-67
2023/06/28 03:35:07;;;;;;;2.80;2.60;;;17.00;2.90;;;;;;4991768;28;20184;-68
2023/06/28 03:37:33;;;;;;;3.93;3.63;;;17.00;2.80;;;;;;4991750;28;20176;-68
2023/06/28 03:39:59;;;;;;;5.47;2.40;;;17.00;2.50;;;;;;4991734;28;20814;-68
2023/06/28 03:42:24;;;;;;;5.00;3.33;;;17.00;2.60;;;;;;4991440;28;20426;-68
2023/06/28 03:44:50;;;;;;;5.80;3.10;;;16.90;2.80;;;;;;4991735;28;20192;-68
2023/06/28 03:47:16;;;;;;;4.00;2.67;;;17.00;2.50;;;;;;4991619;28;20184;-68
2023/06/28 03:49:41;;;;;;;3.53;3.23;;;17.00;2.40;;;;;;4991570;28;20580;-68
2023/06/28 03:52:07;;;;;;;4.00;3.13;;;17.10;2.10;;;;;;4991548;28;20297;-68
2023/06/28 03:54:33;;;;;;;3.00;2.50;;;17.10;2.30;;;;;;4991710;28;20169;-68
2023/06/28 03:56:58;;;;;;;4.07;3.00;;;17.10;2.00;;;;;;4991948;28;20788;-67
2023/06/28 03:59:24;;;;;;;3.47;2.93;;;17.10;2.00;;;;;;4991542;28;20223;-69
2023/06/28 04:01:49;;;;;;;4.30;2.57;;;17.10;2.00;;;;;;4991396;28;20203;-68
2023/06/28 04:04:16;;;;;;;2.93;2.17;;;17.10;1.90;;;;;;4991687;28;20654;-68
2023/06/28 04:06:41;;;;;;;4.87;3.30;;;17.20;1.50;;;;;;4991772;28;20248;-67
2023/06/28 04:09:08;;;;;;;4.73;3.50;;;17.20;1.50;;;;;;4991432;28;20486;-67
2023/06/28 04:11:33;;;;;;;7.53;3.00;;;17.20;1.40;;;;;;4991466;28;20173;-67
2023/06/28 04:13:59;;;;;;;4.57;3.17;;;17.20;1.50;;;;;;4992199;28;20945;-67
2023/06/28 04:16:24;;;;;;;4.23;3.20;;;17.20;1.30;;;;;;4993464;28;20184;-67
2023/06/28 04:18:52;;;;;;;3.87;3.50;;;17.10;1.00;;;;;;4994826;28;20200;-67
2023/06/28 04:21:18;;;;;;;2.60;2.30;;;17.20;1.00;;;;;;4994916;28;20173;-67
2023/06/28 04:23:43;;;;;;;4.30;2.67;;;17.30;1.00;;;;;;4994613;28;20935;-67
2023/06/28 04:26:09;;;;;;;3.50;3.20;;;17.30;1.10;;;;;;4994777;28;20184;-66
2023/06/28 04:28:34;;;;;;;4.00;3.60;;;17.30;1.10;;;;;;4994633;28;20574;-70
2023/06/28 04:31:00;;;;;;;6.07;3.00;;;17.40;1.00;;;;;;4994695;28;20306;-70
2023/06/28 04:33:29;;;;;;;4.50;3.20;;;17.40;1.00;;;;;;4994422;28;20228;-69
2023/06/28 04:35:56;;;;;;;4.77;3.00;;;17.50;1.00;;;;;;4994645;28;20203;-71
2023/06/28 04:38:22;;;;;;;3.43;3.07;;;17.60;1.00;;;;;;4994534;28;20444;-72
2023/06/28 04:40:48;;;;;;;4.10;2.73;;;17.70;1.00;;;;;;4993044;28;20506;-70
2023/06/28 04:43:14;;;;;;;6.03;4.27;;;17.80;1.00;;;;;;4994225;28;20973;-71
2023/06/28 04:45:40;;;;;;;4.50;3.13;;;17.90;1.00;;;;;;4994215;28;20176;-71
2023/06/28 04:48:07;;;;;;;3.87;2.90;;;18.00;1.00;;;;;;4994528;28;20181;-71
2023/06/28 04:50:36;;;;;;;5.33;3.20;;;18.30;1.00;;;;;;4994165;28;20436;-71
2023/06/28 04:53:06;;;;;;;3.17;2.80;;;18.60;1.00;;;;;;4993857;28;20416;-71
2023/06/28 04:55:32;;;;;;;6.17;3.97;;;18.80;1.00;;;;;;4993806;28;20767;-71
2023/06/28 04:58:07;;;;;;;3.67;3.37;;;19.00;1.00;;;;;;4992786;28;21024;-71
2023/06/28 05:00:33;;;;;;;4.40;3.30;;;19.20;1.00;;;;;;4993913;28;20489;-71
2023/06/28 05:03:00;;;;;;;7.20;4.33;;;19.30;1.00;;;;;;4993903;28;20436;-72
2023/06/28 05:05:29;;;;;;;3.77;3.13;;;19.30;1.00;;;;;;4994133;28;20422;-71
2023/06/28 05:07:55;;;;;;;3.60;3.30;;;19.30;1.00;;;;;;4994080;28;20408;-72
2023/06/28 05:10:22;;;;;;;4.77;3.93;;;19.40;1.00;;;;;;4994174;28;20777;-69
2023/06/28 05:12:51;;;;;;;5.40;3.50;;;19.40;1.00;;;;;;4993801;28;20928;-70
2023/06/28 05:15:18;;;;;;;4.63;3.70;;;19.60;1.00;;;;;;4994037;28;20929;-69
2023/06/28 05:17:44;;;;;;;4.13;3.73;;;19.80;1.00;;;;;;4993991;28;20404;-69
2023/06/28 05:20:10;;;;;;;7.30;4.50;;;19.90;1.00;;;;;;4993354;28;20782;-69
2023/06/28 05:22:42;;;;;;;5.10;3.50;;;19.90;1.00;;;;;;4992537;28;20191;-69
2023/06/28 05:25:08;;;;;;;4.23;3.83;;;19.90;1.00;;;;;;4993315;28;20204;-69
2023/06/28 05:27:34;;;;;;;3.77;3.47;;;20.00;1.00;;;;;;4993646;28;20447;-69
2023/06/28 05:29:59;;;;;;;4.10;3.73;;;19.90;1.00;;;;;;4993527;28;20478;-69
2023/06/28 05:32:25;;;;;;;3.70;3.33;;;20.00;1.00;;;;;;4992833;28;20645;-69
2023/06/28 05:34:50;;;;;;;5.10;3.70;;;20.10;1.00;;;;;;4993586;28;20252;-70
2023/06/28 05:37:16;;;;;;;5.50;4.70;;;20.30;1.00;;;;;;4993398;28;20184;-69
2023/06/28 05:39:42;;;;;;;8.70;5.40;;;20.40;1.00;;;;;;4993312;28;20713;-69
2023/06/28 05:42:07;;;;;;;4.17;3.87;;;20.50;1.00;;;;;;4992797;28;20546;-69
2023/06/28 05:44:33;;;;;;;4.40;3.60;;;20.50;1.00;;;;;;4993257;28;20208;-68
2023/06/28 05:46:58;;;;;;;5.70;3.60;;;20.50;1.00;;;;;;4993194;28;20266;-69
2023/06/28 05:49:24;;;;;;;4.60;4.20;;;20.60;1.00;;;;;;4993073;28;20235;-71
2023/06/28 05:51:50;;;;;;;7.10;4.70;;;20.60;1.00;;;;;;4992944;28;20673;-70
2023/06/28 05:54:15;;;;;;;5.70;3.93;;;20.70;1.00;;;;;;4994013;28;20661;-71
2023/06/28 05:56:41;;;;;;;10.80;5.57;;;20.90;1.00;;;;;;4992827;28;20235;-71
2023/06/28 05:59:06;;;;;;;12.33;5.10;;;20.90;1.00;;;;;;4992971;28;20208;-71
2023/06/28 06:01:32;;;;;;;8.27;5.00;;;21.10;1.00;;;;;;4992639;28;20637;-71
2023/06/28 06:03:57;;;;;;;6.63;3.90;;;21.40;1.00;;;;;;4991586;28;20185;-72
2023/06/28 06:06:23;;;;;;;5.20;4.43;;;21.70;1.00;;;;;;4992821;28;20193;-71
2023/06/28 06:08:48;;;;;;;5.03;3.90;;;21.80;1.00;;;;;;4982952;28;20208;-71
2023/06/28 06:11:14;;;;;;;3.90;3.50;;;22.00;1.00;;;;;;4987445;28;20742;-71
2023/06/28 06:13:40;;;;;;;4.90;4.40;;;22.30;1.00;;;;;;4983689;28;20189;-69
2023/06/28 06:16:05;;;;;;;4.13;3.73;;;22.50;1.00;;;;;;4989167;28;20431;-72
2023/06/28 06:18:31;;;;;;;9.67;4.53;;;22.50;1.00;;;;;;4988158;28;20279;-72
2023/06/28 06:20:56;;;;;;;10.20;4.63;;;22.60;1.00;;;;;;4987456;28;20630;-69
2023/06/28 06:23:22;;;;;;;4.00;3.60;;;22.80;1.00;;;;;;4989073;28;20188;-69
2023/06/28 06:25:48;;;;;;;4.37;3.97;;;22.60;1.00;;;;;;4988408;28;20188;-69
2023/06/28 06:28:13;;;;;;;4.93;4.43;;;22.50;1.00;;;;;;4988226;28;20373;-71
2023/06/28 06:30:39;;;;;;;4.60;4.20;;;22.50;1.00;;;;;;4999737;28;20192;-70
2023/06/28 06:33:04;;;;;;;4.90;4.03;;;22.50;1.00;;;;;;4987867;28;20184;-71
2023/06/28 06:35:30;;;;;;;4.63;4.33;;;22.50;1.00;;;;;;4988325;28;20529;-71
2023/06/28 06:37:55;;;;;;;5.40;4.17;;;22.30;1.00;;;;;;4987950;28;20185;-70
2023/06/28 06:40:21;;;;;;;5.17;4.00;;;22.30;1.00;;;;;;4984435;28;20684;-70
2023/06/28 06:42:47;;;;;;;4.93;4.40;;;22.20;1.00;;;;;;4986283;28;20743;-67
2023/06/28 06:45:17;;;;;;;4.90;3.73;;;22.40;1.00;;;;;;4992007;28;20576;-71
2023/06/28 06:47:43;;;;;;;4.40;4.10;;;22.50;1.00;;;;;;4992187;28;20219;-71
2023/06/28 06:50:09;;;;;;;4.70;4.30;;;22.80;1.00;;;;;;4992174;28;20467;-71
2023/06/28 06:52:36;;;;;;;4.83;4.40;;;23.20;1.00;;;;;;4992025;28;20431;-70
2023/06/28 06:55:02;;;;;;;4.87;4.47;;;23.30;1.00;;;;;;4992308;28;20168;-71
2023/06/28 06:57:28;;;;;;;5.43;4.57;;;23.00;1.00;;;;;;4992340;28;20434;-69
2023/06/28 06:59:56;;;;;;;4.10;3.90;;;23.20;1.00;;;;;;4990007;28;20212;-71
2023/06/28 07:02:22;;;;;;;4.50;4.10;;;23.30;1.00;;;;;;4984043;28;20650;-70
2023/06/28 07:04:48;;;;;;;4.97;4.57;;;23.80;1.00;;;;;;4991505;28;20494;-70
2023/06/28 07:07:14;;;;;;;8.53;5.33;;;23.70;1.00;;;;;;4991190;28;20180;-70
2023/06/28 07:09:40;;;;;;;4.40;3.93;;;23.50;1.00;;;;;;4991880;28;20467;-71
2023/06/28 07:12:06;;;;;;;4.57;3.87;;;23.30;1.00;;;;;;4991277;28;20181;-70
2023/06/28 07:14:31;;;;;;;4.53;4.07;;;22.90;1.00;;;;;;4992139;28;20176;-70
2023/06/28 07:16:57;;;;;;;7.23;4.93;;;23.00;1.00;;;;;;4992131;28;20419;-70
2023/06/28 07:19:22;;;;;;;6.80;5.47;;;23.50;1.00;;;;;;4987983;28;20750;-70
2023/06/28 07:21:48;;;;;;;4.93;4.43;;;24.00;1.00;;;;;;4990641;28;20661;-71
2023/06/28 07:24:14;;;;;;;5.67;4.27;;;24.60;1.00;;;;;;4990630;28;20196;-71
2023/06/28 07:26:39;;;;;;;4.53;4.23;;;25.10;1.00;;;;;;4991365;28;20335;-71
2023/06/28 07:29:05;;;;;;;13.43;4.83;;;25.20;1.00;;;;;;4991430;28;20220;-71
2023/06/28 07:31:31;;;;;;;4.67;4.27;;;25.00;1.00;;;;;;4991693;28;20643;-71
2023/06/28 07:33:57;;;;;;;5.10;4.60;;;25.20;1.00;;;;;;4991419;28;20189;-71
2023/06/28 07:36:23;;;;;;;5.43;4.60;;;25.30;1.00;;;;;;4988670;28;20196;-71
2023/06/28 07:38:50;;;;;;;4.30;3.90;;;25.10;1.00;;;;;;4987180;28;20459;-71
2023/06/28 07:41:16;;;;;;;9.43;5.07;;;25.00;1.00;;;;;;4991657;28;20917;-71
2023/06/28 07:43:42;;;;;;;6.97;4.10;;;25.10;1.00;;;;;;4991688;28;20437;-70
2023/06/28 07:46:08;;;;;;;4.87;4.40;;;25.30;1.00;;;;;;4990048;28;20527;-70
2023/06/28 07:48:33;;;;;;;8.70;4.93;;;24.80;1.00;;;;;;4993283;28;20277;-73
2023/06/28 07:51:07;;;;;;;5.27;4.87;;;24.90;1.00;;;;;;4994580;28;20188;-72
2023/06/28 07:53:32;;;;;;;7.63;5.20;;;24.90;1.00;;;;;;4995670;28;20474;-71
2023/06/28 07:56:01;;;;;;;4.40;4.07;;;24.90;1.00;;;;;;4995577;28;20415;-71
2023/06/28 07:58:30;;;;;;;5.00;4.70;;;25.10;1.00;;;;;;4996305;28;20619;-77
2023/06/28 08:00:55;;;;;;;10.20;5.80;;;25.50;1.00;;;;;;4995322;28;20511;-74
2023/06/28 08:03:22;;;;;;;4.90;3.70;;;25.30;1.00;;;;;;4994700;28;20973;-75
2023/06/28 08:05:47;;;;;;;4.20;3.90;;;25.40;1.00;;;;;;4995558;28;20216;-73
2023/06/28 08:08:13;;;;;;;4.70;4.23;;;25.30;1.00;;;;;;4993860;28;20486;-73
2023/06/28 08:10:38;;;;;;;4.43;4.03;;;25.60;1.00;;;;;;4995164;28;20605;-74
2023/06/28 08:13:04;;;;;;;4.93;4.53;;;26.00;1.00;;;;;;4994587;28;20631;-74
2023/06/28 08:15:34;;;;;;;5.93;4.70;;;26.10;1.00;;;;;;4995679;28;20188;-73
2023/06/28 08:18:02;;;;;;;4.43;4.03;;;26.10;1.00;;;;;;4995178;28;20185;-73
2023/06/28 08:20:28;;;;;;;4.33;3.63;;;26.30;1.00;;;;;;4993338;28;20529;-74
2023/06/28 08:22:54;;;;;;;3.73;3.43;;;26.20;1.00;;;;;;4994805;28;20415;-73
2023/06/28 08:25:19;;;;;;;4.20;3.90;;;25.90;1.00;;;;;;4993905;28;20469;-73
2023/06/28 08:27:45;;;;;;;4.67;4.30;;;25.70;1.00;;;;;;4993167;28;20187;-73
2023/06/28 08:30:11;;;;;;;5.43;4.33;;;25.50;1.00;;;;;;4994456;28;20220;-72
2023/06/28 08:32:36;;;;;;;5.10;4.20;;;24.80;1.00;;;;;;4995346;28;20273;-72
2023/06/28 08:35:05;;;;;;;8.67;5.47;;;24.60;1.00;;;;;;4994015;28;20514;-72
2023/06/28 08:37:34;;;;;;;9.87;5.10;;;24.70;1.00;;;;;;4994515;28;20181;-72
2023/06/28 08:40:00;;;;;;;4.13;3.80;;;24.60;1.00;;;;;;4993983;28;20863;-72
2023/06/28 08:42:28;;;;;;;6.17;4.50;;;24.50;1.00;;;;;;4994221;28;20436;-69
2023/06/28 08:44:56;;;;;;;5.30;4.80;;;24.40;1.00;;;;;;4993090;28;20969;-69
2023/06/28 08:47:21;;;;;;;3.77;3.47;;;24.50;1.00;;;;;;4990918;28;20433;-70
2023/06/28 08:49:48;;;;;;;5.90;4.00;;;24.50;1.00;;;;;;4988460;28;20474;-70
2023/06/28 08:52:15;;;;;;;5.03;4.63;;;24.80;1.00;;;;;;4984987;28;20187;-70
2023/06/28 08:54:42;;;;;;;4.57;3.83;;;25.00;1.00;;;;;;4992802;28;20462;-73
2023/06/28 08:57:08;;;;;;;5.77;4.03;;;25.00;1.00;;;;;;4994031;28;20446;-69
2023/06/28 08:59:34;;;;;;;5.30;4.90;;;25.30;1.00;;;;;;4993459;28;20538;-69
2023/06/28 09:02:02;;;;;;;5.10;4.67;;;25.70;1.00;;;;;;4993208;28;20925;-73
2023/06/28 09:04:29;;;;;;;4.83;4.33;;;25.90;1.00;;;;;;4993778;28;20260;-70
2023/06/28 09:06:56;;;;;;;7.20;4.73;;;25.80;1.00;;;;;;4993716;28;20435;-72
2023/06/28 09:09:23;;;;;;;4.77;4.30;;;25.80;1.00;;;;;;4993876;28;20467;-72
2023/06/28 09:11:50;;;;;;;5.80;4.40;;;26.10;1.00;;;;;;4992513;28;20482;-73
2023/06/28 09:14:15;;;;;;;32.33;10.77;;;26.50;1.00;;;;;;4993965;28;20478;-73
2023/06/28 09:16:41;;;;;;;6.13;5.13;;;26.70;1.00;;;;;;4994056;28;20932;-72
2023/06/28 09:19:06;;;;;;;5.33;4.83;;;27.00;1.00;;;;;;4993773;28;20266;-73
2023/06/28 09:21:33;;;;;;;5.23;4.83;;;27.30;1.00;;;;;;4993724;28;20193;-73
2023/06/28 09:24:00;;;;;;;6.90;5.10;;;27.30;1.00;;;;;;4993833;28;20731;-73
2023/06/28 09:26:31;;;;;;;4.80;4.40;;;27.00;1.00;;;;;;4993849;28;20578;-73
2023/06/28 09:29:05;;;;;;;5.13;4.73;;;27.00;1.00;;;;;;4993405;28;20467;-73
2023/06/28 09:31:32;;;;;;;3.90;3.60;;;27.00;1.00;;;;;;4993328;28;20442;-72
2023/06/28 09:34:00;;;;;;;4.90;4.47;;;27.00;1.00;;;;;;4993077;28;20438;-72
2023/06/28 09:36:28;;;;;;;5.00;4.33;;;27.00;1.00;;;;;;4993285;28;20428;-71
2023/06/28 09:38:55;;;;;;;4.40;4.10;;;26.40;1.00;;;;;;4993559;28;20470;-71
2023/06/28 09:41:21;;;;;;;4.93;4.53;;;26.10;1.00;;;;;;4993029;28;20446;-72
2023/06/28 09:43:47;;;;;;;8.60;7.57;;;26.40;1.00;;;;;;4993308;28;20427;-72
2023/06/28 09:46:16;;;;;;;4.50;4.20;;;26.60;1.00;;;;;;4993573;28;20239;-71
2023/06/28 09:48:44;;;;;;;5.73;3.97;;;26.90;1.00;;;;;;4991845;28;20475;-69
2023/06/28 09:51:17;;;;;;;5.10;4.70;;;27.30;1.00;;;;;;4993121;28;20811;-72
2023/06/28 09:54:05;;;;;;;5.57;4.30;;;27.60;1.00;;;;;;4992011;28;20432;-73
2023/06/28 09:56:35;;;;;;;4.97;4.57;;;27.70;1.00;;;;;;4991877;28;20794;-73
2023/06/28 10:01:58;;;;;;;4.70;4.20;;;27.50;1.00;;;;;;4993025;28;20594;-74
2023/06/28 10:04:33;;;;;;;8.07;4.60;;;27.70;1.00;;;;;;4991884;28;20436;-74
2023/06/28 10:07:01;;;;;;;4.80;3.80;;;26.90;1.00;;;;;;4993078;28;20498;-74
2023/06/28 10:09:40;;;;;;;4.20;3.90;;;27.10;1.00;;;;;;4992887;28;20544;-76
2023/06/28 10:12:12;;;;;;;4.37;3.97;;;27.00;1.00;;;;;;4992199;28;20879;-72
2023/06/28 10:14:48;;;;;;;5.40;4.40;;;27.20;1.00;;;;;;4992581;28;20424;-72
2023/06/28 10:17:16;;;;;;;4.40;4.10;;;27.60;1.00;;;;;;4991687;28;20451;-71
2023/06/28 10:19:42;;;;;;;4.27;3.97;;;28.30;1.00;;;;;;4992917;28;21039;-71
2023/06/28 10:22:08;;;;;;;4.63;4.23;;;28.40;1.00;;;;;;4992574;28;20436;-71
2023/06/28 10:24:38;;;;;;;6.93;4.70;;;28.40;1.00;;;;;;4992812;28;20477;-71
2023/06/28 10:27:05;;;;;;;5.60;5.00;;;28.80;1.00;;;;;;4992507;28;20189;-73
2023/06/28 10:29:31;;;;;;;4.13;3.83;;;28.80;1.00;;;;;;4992252;28;20459;-72
2023/06/28 10:31:57;;;;;;;4.00;3.60;;;28.60;1.00;;;;;;4992368;28;20864;-72
2023/06/28 10:34:23;;;;;;;4.73;4.33;;;28.00;1.00;;;;;;4991768;28;20456;-70
2023/06/28 10:36:49;;;;;;;6.13;4.10;;;28.10;1.00;;;;;;4993282;28;20184;-71
2023/06/28 10:39:16;;;;;;;4.10;3.70;;;28.30;1.00;;;;;;4992523;28;20444;-72
2023/06/28 10:41:42;;;;;;;4.00;3.60;;;27.90;1.00;;;;;;4992609;28;20434;-71
2023/06/28 10:44:07;;;;;;;7.07;4.03;;;27.70;1.00;;;;;;4991727;28;20431;-71
2023/06/28 10:46:36;;;;;;;4.83;4.40;;;27.30;1.00;;;;;;4992681;28;20430;-71
2023/06/28 10:49:03;;;;;;;4.83;4.53;;;27.20;1.00;;;;;;4992533;28;20212;-70
2023/06/28 10:51:36;;;;;;;4.67;3.87;;;26.40;1.00;;;;;;4990420;28;20443;-71
2023/06/28 10:54:13;;;;;;;4.57;4.27;;;26.30;1.00;;;;;;4992100;28;20438;-70
2023/06/28 10:56:49;;;;;;;5.13;4.47;;;26.40;1.00;;;;;;4992637;28;20473;-70
2023/06/28 10:59:15;;;;;;;3.87;3.57;;;26.00;1.00;;;;;;4990341;28;20964;-69
2023/06/28 11:01:51;;;;;;;5.10;4.20;;;26.20;1.00;;;;;;4985040;28;20455;-69
2023/06/28 11:04:25;;;;;;;4.53;4.10;;;26.20;1.00;;;;;;4973016;28;20478;-70
2023/06/28 11:07:02;;;;;;;4.67;4.33;;;26.30;1.00;;;;;;4979335;28;20486;-70
2023/06/28 11:09:28;;;;;;;5.40;4.07;;;26.60;1.00;;;;;;4991757;28;20547;-71
2023/06/28 11:11:57;;;;;;;4.30;4.00;;;26.10;1.00;;;;;;4991514;28;20428;-70
2023/06/28 11:14:29;;;;;;;4.00;3.70;;;25.90;1.00;;;;;;4992341;28;20669;-70
2023/06/28 11:17:05;;;;;;;4.97;4.50;;;25.60;1.00;;;;;;4991724;28;20435;-70
2023/06/28 11:19:31;;;;;;;6.17;4.27;;;24.90;1.00;;;;;;4991871;28;20454;-70
2023/06/28 11:22:01;;;;;;;5.00;4.37;;;24.70;1.00;;;;;;4991864;28;20772;-70
2023/06/28 11:24:33;;;;;;;4.90;4.50;;;24.90;1.00;;;;;;4995310;28;20184;-70
2023/06/28 11:26:59;;;;;;;4.30;3.90;;;25.20;1.00;;;;;;4995888;28;20454;-70
2023/06/28 11:29:25;;;;;;;5.63;5.00;;;25.60;1.00;;;;;;4995664;28;21004;-70
2023/06/28 11:32:01;;;;;;;4.27;3.90;;;25.70;1.00;;;;;;4995706;28;20416;-70
2023/06/28 11:34:28;;;;;;;5.30;4.67;;;25.70;1.00;;;;;;4996023;28;20242;-71
2023/06/28 11:36:54;;;;;;;4.93;4.47;;;25.90;1.00;;;;;;4994023;28;20507;-70
2023/06/28 11:39:22;;;;;;;4.90;4.50;;;25.70;1.00;;;;;;4995379;28;20530;-71
2023/06/28 11:41:48;;;;;;;4.47;4.03;;;25.80;1.00;;;;;;4995262;28;20519;-71
2023/06/28 11:44:15;;;;;;;4.80;4.40;;;25.70;1.00;;;;;;4995683;28;20434;-70
2023/06/28 11:46:41;;;;;;;8.87;4.80;;;25.70;1.00;;;;;;4995247;28;20431;-70
2023/06/28 11:49:08;;;;;;;13.93;4.07;;;25.70;1.00;;;;;;4995421;28;20464;-70
2023/06/28 11:51:34;;;;;;;5.30;3.93;;;26.00;1.00;;;;;;4995039;28;20432;-71
2023/06/28 11:54:01;;;;;;;5.40;4.07;;;26.40;1.00;;;;;;4994282;28;20493;-70
2023/06/28 11:56:41;;;;;;;4.53;3.90;;;26.80;1.00;;;;;;4993759;28;20880;-70
2023/06/28 11:59:17;;;;;;;5.20;4.70;;;27.10;1.00;;;;;;4995121;28;20478;-70
2023/06/28 12:01:44;;;;;;;4.30;4.00;;;26.30;1.00;;;;;;4995130;28;20430;-71
2023/06/28 12:04:20;;;;;;;5.33;4.83;;;26.70;1.00;;;;;;4995138;28;20506;-70
2023/06/28 12:06:47;;;;;;;4.90;4.60;;;27.60;1.00;;;;;;4995263;28;20459;-71
2023/06/28 12:09:29;;;;;;;4.40;3.47;;;28.30;1.00;;;;;;4995484;28;20463;-72
2023/06/28 12:11:58;;;;;;;6.03;4.00;;;28.70;1.00;;;;;;4995135;28;20459;-71
2023/06/28 12:14:24;;;;;;;4.43;4.03;;;28.50;1.00;;;;;;4995084;28;20770;-71
2023/06/28 12:16:50;;;;;;;4.63;3.73;;;28.60;1.00;;;;;;4995310;28;20910;-71
2023/06/28 12:19:17;;;;;;;5.50;4.10;;;28.40;1.00;;;;;;4994864;28;20444;-70
2023/06/28 12:21:43;;;;;;;4.43;4.07;;;28.00;1.00;;;;;;4993382;28;20522;-69
2023/06/28 12:24:24;;;;;;;4.40;4.00;;;27.50;1.00;;;;;;4991870;28;20447;-69
2023/06/28 12:26:58;;;;;;;4.87;4.47;;;27.40;1.00;;;;;;4994813;28;20438;-69
2023/06/28 12:29:26;;;;;;;4.70;4.40;;;27.30;1.00;;;;;;4994352;28;20459;-69
2023/06/28 12:31:54;;;;;;;5.63;4.97;;;26.90;1.00;;;;;;4994328;28;20470;-69
2023/06/28 12:34:31;;;;;;;4.97;4.57;;;26.90;1.00;;;;;;4994315;28;20806;-69
2023/06/28 12:37:00;;;;;;;4.50;4.13;;;27.00;1.00;;;;;;4994167;28;20520;-69
2023/06/28 12:39:28;;;;;;;6.80;5.17;;;26.90;1.00;;;;;;4994469;28;20477;-69
2023/06/28 12:42:05;;;;;;;8.27;4.60;;;27.00;1.00;;;;;;4994118;28;20423;-69
2023/06/28 12:44:56;;;;;;;4.53;4.17;;;27.10;1.00;;;;;;4994358;28;20418;-69
2023/06/28 12:47:24;;;;;;;5.30;4.33;;;27.10;1.00;;;;;;4994215;28;20408;-68
2023/06/28 12:49:53;;;;;;;4.60;4.30;;;26.80;1.00;;;;;;4994137;28;20471;-69
2023/06/28 12:52:20;;;;;;;5.00;4.50;;;26.10;1.00;;;;;;4992579;28;20424;-69
2023/06/28 12:54:46;;;;;;;3.90;3.60;;;26.00;1.00;;;;;;4993222;28;20416;-69
2023/06/28 12:57:11;;;;;;;5.80;4.33;;;25.90;1.00;;;;;;4992945;28;20422;-69
2023/06/28 12:59:39;;;;;;;4.43;4.07;;;25.70;1.00;;;;;;4988930;28;20219;-68